createdAt,value
2023-02-28T14:55:09.093Z,5.28
2023-02-28T14:57:42.151Z,5.30
2023-02-28T15:00:18.526Z,5.18
2023-02-28T15:02:45.925Z,5.88
2023-02-28T15:05:18.964Z,4.82
2023-02-28T15:07:50.232Z,4.90
2023-02-28T15:10:26.793Z,5.63
2023-02-28T15:12:59.978Z,5.88
2023-02-28T15:16:05.413Z,4.97
2023-02-28T15:18:43.127Z,5.75
2023-02-28T15:21:19.154Z,4.63
2023-02-28T15:24:00.333Z,5.47
2023-02-28T15:26:42.000Z,5.20
2023-02-28T15:29:15.695Z,5.63
2023-02-28T15:31:58.601Z,4.30
2023-02-28T15:34:42.872Z,5.47
2023-02-28T15:37:47.760Z,5.72
2023-02-28T15:40:25.252Z,4.68
2023-02-28T15:43:19.664Z,5.15
2023-02-28T15:46:11.323Z,4.18
2023-02-28T15:48:45.030Z,5.47
2023-02-28T15:51:23.336Z,4.75
2023-02-28T15:53:59.363Z,6.20
2023-02-28T15:56:35.310Z,5.63
2023-02-28T15:59:25.662Z,4.93
2023-02-28T16:02:11.122Z,4.85
2023-02-28T16:04:54.950Z,5.07
2023-02-28T16:07:22.041Z,5.75
2023-02-28T16:09:49.218Z,6.22
2023-02-28T16:12:16.475Z,6.75
2023-02-28T16:14:43.996Z,4.65
2023-02-28T16:17:24.191Z,5.22
2023-02-28T16:19:51.549Z,5.22
2023-02-28T16:22:18.644Z,5.53
2023-02-28T16:24:45.807Z,5.38
2023-02-28T16:27:53.116Z,5.50
2023-02-28T16:30:24.521Z,4.68
2023-02-28T16:32:52.685Z,6.00
2023-02-28T16:35:20.908Z,5.65
2023-02-28T16:37:48.784Z,4.68
2023-02-28T16:42:57.547Z,4.88
2023-02-28T16:45:28.203Z,4.65
2023-02-28T16:47:56.468Z,4.85
2023-02-28T16:50:29.039Z,5.63
2023-02-28T16:52:56.965Z,4.75
2023-02-28T16:57:57.464Z,3.90
2023-02-28T17:00:25.741Z,4.80
2023-02-28T17:02:53.136Z,4.53
2023-02-28T17:05:20.573Z,6.03
2023-02-28T17:07:49.044Z,5.60
2023-02-28T17:10:20.458Z,4.70
2023-02-28T17:12:47.703Z,4.22
2023-02-28T17:15:16.743Z,5.55
2023-02-28T17:17:47.445Z,5.03
2023-02-28T17:20:23.383Z,5.03
2023-02-28T17:22:51.826Z,4.45
2023-02-28T17:25:19.285Z,5.35
2023-02-28T17:27:46.673Z,6.55
2023-02-28T17:30:22.632Z,5.40
2023-02-28T17:32:49.787Z,5.10
2023-02-28T17:35:17.438Z,4.30
2023-02-28T17:37:51.397Z,5.82
2023-02-28T17:40:28.719Z,4.43
2023-02-28T17:42:57.720Z,5.15
2023-02-28T17:45:25.151Z,3.88
2023-02-28T17:47:52.594Z,5.15
2023-02-28T17:50:22.445Z,5.28
2023-02-28T17:52:51.304Z,4.95
2023-02-28T17:55:20.159Z,5.32
2023-02-28T17:57:47.545Z,4.80
2023-02-28T18:00:16.901Z,4.55
2023-02-28T18:02:44.941Z,5.63
2023-02-28T18:05:12.473Z,4.78
2023-02-28T18:07:43.051Z,5.57
2023-02-28T18:10:20.482Z,4.38
2023-02-28T18:12:52.692Z,4.55
2023-02-28T18:15:22.024Z,4.00
2023-02-28T18:17:50.366Z,5.57
2023-02-28T18:20:20.263Z,5.22
2023-02-28T18:22:54.964Z,4.70
2023-02-28T18:25:23.040Z,5.55
2023-02-28T18:27:59.294Z,5.50
2023-02-28T18:30:32.346Z,5.03
2023-02-28T18:33:00.401Z,5.28
2023-02-28T18:35:39.051Z,4.38
2023-02-28T18:38:19.207Z,5.78
2023-02-28T18:41:01.360Z,5.18
2023-02-28T18:43:33.207Z,4.93
2023-02-28T18:46:07.630Z,4.13
2023-02-28T18:48:35.646Z,5.35
2023-02-28T18:51:15.298Z,6.03
2023-02-28T18:53:43.319Z,4.07
2023-02-28T18:56:15.568Z,6.07
2023-02-28T18:58:43.061Z,4.65
2023-02-28T19:01:30.540Z,5.07
2023-02-28T19:06:33.685Z,4.78
2023-02-28T19:09:02.345Z,6.13
2023-02-28T19:11:31.205Z,5.60
2023-02-28T19:14:01.197Z,7.97
2023-02-28T19:16:31.734Z,7.32
2023-02-28T19:19:01.626Z,8.02
2023-02-28T19:21:29.329Z,9.63
2023-02-28T19:23:56.431Z,10.93
2023-02-28T19:26:27.255Z,8.75
2023-02-28T19:28:54.569Z,6.57
2023-02-28T19:31:27.447Z,6.38
2023-02-28T19:33:57.254Z,7.10
2023-02-28T19:36:33.156Z,12.13
2023-02-28T19:39:05.032Z,9.60
2023-02-28T19:41:32.270Z,9.23
2023-02-28T19:44:01.721Z,8.57
2023-02-28T19:46:29.312Z,8.15
2023-02-28T19:49:01.532Z,6.35
2023-02-28T19:51:52.459Z,8.07
2023-02-28T19:54:23.537Z,9.45
2023-02-28T19:56:51.357Z,10.25
2023-02-28T19:59:35.720Z,11.30
2023-02-28T20:04:55.361Z,9.63
2023-02-28T20:07:23.738Z,10.27
2023-02-28T20:09:53.855Z,8.65
2023-02-28T20:12:24.377Z,7.88
2023-02-28T20:14:55.104Z,6.57
2023-02-28T20:17:25.925Z,6.60
2023-02-28T20:19:53.211Z,6.75
2023-02-28T20:22:20.352Z,7.90
2023-02-28T20:24:50.604Z,5.93
2023-02-28T20:27:27.336Z,7.07
2023-02-28T20:29:54.502Z,9.13
2023-02-28T20:32:21.721Z,8.73
2023-02-28T20:34:50.401Z,7.15
2023-02-28T20:37:20.562Z,8.48
2023-02-28T20:39:49.767Z,8.07
2023-02-28T20:42:19.551Z,7.15
2023-02-28T20:44:46.860Z,8.57
2023-02-28T20:47:14.387Z,8.30
2023-02-28T20:49:51.597Z,7.75
2023-02-28T20:52:19.575Z,8.50
2023-02-28T20:54:49.628Z,7.68
2023-02-28T20:57:28.839Z,9.10
2023-02-28T21:00:01.782Z,7.28
2023-02-28T21:02:29.513Z,8.50
2023-02-28T21:04:56.668Z,7.65
2023-02-28T21:07:28.281Z,8.27
2023-02-28T21:09:58.580Z,8.95
2023-02-28T21:12:37.273Z,6.82
2023-02-28T21:15:05.603Z,8.35
2023-02-28T21:17:32.779Z,7.38
2023-02-28T21:19:59.844Z,7.15
2023-02-28T21:22:29.936Z,7.00
2023-02-28T21:25:09.095Z,8.52
2023-02-28T21:27:46.531Z,7.45
2023-02-28T21:30:16.675Z,6.18
2023-02-28T21:32:44.258Z,5.72
2023-02-28T21:35:11.605Z,7.53
2023-02-28T21:37:47.450Z,5.80
2023-02-28T21:40:14.760Z,5.45
2023-02-28T21:42:42.147Z,7.40
2023-02-28T21:45:09.469Z,7.70
2023-02-28T21:47:36.679Z,7.45
2023-02-28T21:50:04.057Z,8.98
2023-02-28T21:52:31.385Z,10.68
2023-02-28T21:54:58.713Z,8.48
2023-02-28T21:57:25.871Z,7.25
2023-02-28T21:59:52.988Z,7.40
2023-02-28T22:02:20.165Z,7.18
2023-02-28T22:04:47.357Z,7.93
2023-02-28T22:07:14.686Z,7.40
2023-02-28T22:09:44.037Z,7.43
2023-02-28T22:12:11.728Z,7.47
2023-02-28T22:14:40.314Z,9.00
2023-02-28T22:17:07.715Z,9.45
2023-02-28T22:19:36.050Z,8.15
2023-02-28T22:22:03.435Z,10.32
2023-02-28T22:24:30.612Z,9.90
2023-02-28T22:26:58.677Z,8.32
2023-02-28T22:29:26.468Z,7.03
2023-02-28T22:31:53.720Z,6.93
2023-02-28T22:34:20.891Z,6.60
2023-02-28T22:36:48.171Z,7.20
2023-02-28T22:39:16.398Z,7.63
2023-02-28T22:41:43.782Z,9.38
2023-02-28T22:44:11.538Z,7.90
2023-02-28T22:54:04.473Z,5.72
2023-02-28T22:56:32.332Z,7.90
2023-02-28T22:59:01.024Z,8.50
2023-02-28T23:01:33.959Z,6.63
2023-02-28T23:04:02.821Z,7.35
2023-02-28T23:06:33.907Z,10.05
2023-02-28T23:09:05.866Z,9.13
2023-02-28T23:11:38.003Z,10.98
2023-02-28T23:14:09.378Z,8.38
2023-02-28T23:16:51.074Z,8.00
2023-02-28T23:19:22.531Z,9.02
2023-02-28T23:21:52.841Z,10.73
2023-02-28T23:24:22.148Z,7.10
2023-02-28T23:26:52.442Z,8.65
2023-02-28T23:29:21.458Z,7.60
2023-02-28T23:31:50.586Z,8.55
2023-02-28T23:34:26.718Z,8.40
2023-02-28T23:36:55.107Z,10.80
2023-02-28T23:39:23.296Z,10.35
2023-02-28T23:41:52.904Z,11.30
2023-02-28T23:44:21.103Z,8.02
2023-02-28T23:46:51.447Z,7.85
2023-02-28T23:49:20.277Z,7.68
2023-02-28T23:51:51.937Z,8.48
2023-02-28T23:54:22.038Z,6.55
2023-02-28T23:56:49.248Z,9.40
2023-02-28T23:59:16.729Z,8.73
